EW4553 Weather Reports


Display with metric or nautical units.
time (UTC)temp
F
wind
direction
speed
MPH
gust
MPH
rain 1hr
in
rain 24hr
in
rain mn
in
humidity
%
barometer
mb
20190419003327 54 345 8.0 11.0 0.00 0.00 0.00 74 1023.8
20190419003032 56 28 6.0 10.0 0.00 0.00 0.00 67 1024.2
20190419002825 55 345 9.0 11.0 0.00 0.00 0.00 74 1023.7
20190419002325 54 355 8.0 11.0 0.00 0.00 0.00 74 1023.8
20190419001825 55 358 7.0 10.0 0.00 0.00 0.00 74 1023.8
20190419001529 56 24 6.0 9.0 0.00 0.00 0.00 67 1024.1
20190419001325 55 357 6.0 10.0 0.00 0.00 0.00 74 1023.8
20190419000825 55 357 7.0 10.0 0.00 0.00 0.00 74 1023.7
20190419000324 55 351 7.0 10.0 0.00 0.00 0.00 74 1023.7
20190419000024 57 31 6.0 11.0 0.00 0.00 0.00 67 1024.1
20190418235826 55 0 6.0 10.0 0.00 0.00 0.00 74 1023.8
20190418235325 55 353 7.0 11.0 0.00 0.00 0.00 74 1023.7
20190418234827 55 6 7.0 10.0 0.00 0.00 0.00 75 1023.6
20190418234541 57 26 6.0 10.0 0.00 0.00 0.00 68 1024.0
20190418234325 55 345 7.0 11.0 0.00 0.00 0.00 75 1023.6
20190418233826 55 341 7.0 11.0 0.00 0.00 0.00 75 1023.6
20190418233326 55 343 6.0 10.0 0.00 0.00 0.00 76 1023.5
20190418233045 57 38 6.0 10.0 0.00 0.00 0.00 69 1023.9
20190418232824 55 355 7.0 9.0 0.00 0.00 0.00 77 1023.6
20190418232325 55 357 6.0 9.0 0.00 0.00 0.00 77 1023.5
20190418231825 55 0 6.0 9.0 0.00 0.00 0.00 77 1023.5
20190418231525 57 34 5.0 8.0 0.00 0.00 0.00 70 1023.9
20190418231323 55 0 6.0 7.0 0.00 0.00 0.00 78 1023.5
20190418230825 55 353 5.0 7.0 0.00 0.00 0.00 78 1023.6
20190418230323 55 0 6.0 7.0 0.00 0.00 0.00 78 1023.6
20190418230011 57 28 4.0 7.0 0.00 0.00 0.00 72 1023.9
20190418225823 55 355 5.0 7.0 0.00 0.00 0.00 79 1023.5
20190418225325 55 0 5.0 7.0 0.00 0.00 0.00 79 1023.5
20190418224823 54 355 6.0 9.0 0.00 0.00 0.00 80 1023.4
20190418224507 57 22 4.0 8.0 0.00 0.00 0.00 73 1023.7
20190418224323 54 355 6.0 10.0 0.00 0.00 0.00 80 1023.4
20190418223823 53 347 6.0 10.0 0.00 0.00 0.00 82 1023.4
20190418223324 54 354 4.0 6.0 0.00 0.00 0.00 83 1023.4
20190418223008 55 28 0.0 2.0 0.00 0.00 0.00 81 1023.7
20190418222823 54 0 0.0 1.0 0.00 0.00 0.00 83 1023.3
20190418222324 54 0 0.0 6.0 0.00 0.00 0.00 82 1023.3
20190418221822 54 0 3.0 9.0 0.00 0.00 0.00 83 1023.2
20190418221538 56 34 4.0 7.0 0.00 0.00 0.00 79 1023.6
20190418221324 54 357 5.0 9.0 0.00 0.00 0.00 83 1023.2
20190418220822 54 3 5.0 7.0 0.00 0.00 0.00 83 1023.2
20190418220322 55 0 5.0 7.0 0.00 0.00 0.00 83 1023.1
20190418220003 56 29 3.0 6.0 0.00 0.00 0.00 80 1023.4
20190418215821 55 0 5.0 7.0 0.00 0.00 0.00 82 1023.0
20190418215322 55 351 6.0 7.0 0.00 0.00 0.00 81 1023.0
20190418214823 55 0 5.0 5.0 0.00 0.00 0.00 78 1023.0
20190418214502 56 29 1.0 3.0 0.00 0.00 0.00 75 1023.3
20190418214320 56 14 2.0 4.0 0.00 0.00 0.00 76 1022.9
20190418213822 56 13 3.0 4.0 0.00 0.00 0.00 76 1022.9
20190418213322 56 358 2.0 4.0 0.00 0.00 0.00 75 1022.8
20190418213305 58 22 1.0 3.0 0.00 0.00 0.00 70 1023.2
20190418212821 56 358 3.0 4.0 0.00 0.00 0.00 74 1022.8
20190418212322 56 358 3.0 4.0 0.00 0.00 0.00 74 1022.9
20190418211821 57 358 1.0 3.0 0.00 0.00 0.00 73 1022.7
20190418211639 59 20 0.0 3.0 0.00 0.00 0.00 68 1023.1
20190418211321 57 358 2.0 4.0 0.00 0.00 0.00 72 1022.7
20190418210822 57 358 3.0 4.0 0.00 0.00 0.00 72 1022.7
20190418210321 57 358 3.0 4.0 0.00 0.00 0.00 72 1022.7
20190418210230 60 20 2.0 3.0 0.00 0.00 0.00 67 1023.0
20190418205823 57 358 3.0 4.0 0.00 0.00 0.00 72 1022.7
20190418205323 58 358 2.0 4.0 0.00 0.00 0.00 73 1022.7
20190418204822 58 358 3.0 4.0 0.00 0.00 0.00 72 1022.8
20190418204716 60 21 2.0 4.0 0.00 0.00 0.00 67 1023.1
20190418204321 58 358 3.0 4.0 0.00 0.00 0.00 72 1022.8
20190418203820 58 0 3.0 4.0 0.00 0.00 0.00 71 1022.8
20190418203320 58 0 2.0 4.0 0.00 0.00 0.00 71 1022.8
20190418203158 61 26 1.0 3.0 0.00 0.00 0.00 65 1023.2
20190418203112 61 26 1.0 3.0 0.00 0.00 0.00 65 1023.2
20190418202820 58 0 3.0 4.0 0.00 0.00 0.00 71 1022.8
20190418202320 58 0 2.0 4.0 0.00 0.00 0.00 71 1022.8
20190418201821 58 14 2.0 4.0 0.00 0.00 0.00 71 1022.7
20190418201655 60 28 1.0 3.0 0.00 0.00 0.00 66 1023.1
20190418201321 58 0 3.0 4.0 0.00 0.00 0.00 72 1022.7
20190418200819 58 357 2.0 4.0 0.00 0.00 0.00 72 1022.7
20190418200320 58 247 1.0 3.0 0.00 0.00 0.00 72 1022.7
20190418200138 59 327 0.0 1.0 0.00 0.00 0.00 70 1023.1
20190418195820 58 247 0.0 2.0 0.00 0.00 0.00 71 1022.7
20190418195319 59 247 1.0 2.0 0.00 0.00 0.00 72 1022.6
20190418194819 59 237 1.0 2.0 0.00 0.00 0.00 72 1022.7
20190418194704 58 285 0.0 1.0 0.00 0.00 0.00 72 1022.9
20190418194319 59 237 1.0 2.0 0.00 0.00 0.00 72 1022.5
20190418193819 59 237 1.0 4.0 0.00 0.00 0.00 71 1022.4
20190418193319 59 237 2.0 4.0 0.00 0.00 0.00 71 1022.4
20190418193217 58 285 1.0 3.0 0.00 0.00 0.00 72 1022.8
20190418192819 59 243 3.0 4.0 0.00 0.00 0.00 71 1022.4
20190418192318 59 250 2.0 3.0 0.00 0.00 0.00 71 1022.3
20190418191818 60 250 0.0 2.0 0.00 0.00 0.00 71 1022.3
20190418191620 60 285 0.0 2.0 0.00 0.00 0.00 70 1022.7
20190418191318 60 250 1.0 2.0 0.00 0.00 0.00 69 1022.3
20190418190819 60 254 1.0 2.0 0.00 0.00 0.00 69 1022.2
20190418190319 60 254 1.0 2.0 0.00 0.00 0.00 69 1022.1
20190418190115 60 285 0.0 2.0 0.00 0.00 0.00 67 1022.5
20190418185821 61 254 2.0 2.0 0.00 0.00 0.00 68 1022.1
20190418185320 61 254 1.0 2.0 0.00 0.00 0.00 68 1022.0
20190418184821 61 254 1.0 2.0 0.00 0.00 0.00 68 1021.9
20190418184650 61 284 0.0 1.0 0.00 0.00 0.00 65 1022.4
20190418184319 61 254 1.0 2.0 0.00 0.00 0.00 67 1022.0
20190418183818 61 244 1.0 2.0 0.00 0.00 0.00 67 1021.9
20190418183317 61 244 1.0 2.0 0.00 0.00 0.00 68 1021.9
20190418183123 61 284 0.0 2.0 0.00 0.00 0.00 66 1022.3
20190418182819 62 244 0.0 4.0 0.00 0.00 0.00 67 1021.9
20190418182317 62 244 3.0 4.0 0.00 0.00 0.00 69 1021.9
20190418181819 62 226 2.0 3.0 0.00 0.00 0.00 68 1021.8
20190418181634 61 284 1.0 2.0 0.00 0.00 0.00 67 1022.1
20190418181317 62 226 1.0 3.0 0.00 0.00 0.00 67 1021.8
20190418180819 62 226 2.0 3.0 0.00 0.00 0.00 68 1021.8
20190418180317 62 180 1.0 4.0 0.00 0.00 0.00 67 1021.7
20190418180110 62 282 1.0 4.0 0.00 0.00 0.00 65 1022.0
20190418175817 62 176 2.0 4.0 0.00 0.00 0.00 66 1021.7
20190418175318 63 182 2.0 4.0 0.00 0.00 0.00 66 1021.6
20190418174818 63 182 3.0 4.0 0.00 0.00 0.00 65 1021.5
20190418174641 63 256 1.0 4.0 0.00 0.00 0.00 63 1021.9
20190418174316 64 179 3.0 4.0 0.00 0.00 0.00 65 1021.4
20190418173816 64 179 2.0 4.0 0.00 0.00 0.00 63 1021.4
20190418173316 65 171 2.0 5.0 0.00 0.00 0.00 63 1021.3
20190418173204 64 229 0.0 5.0 0.00 0.00 0.00 61 1021.7
20190418172816 65 169 2.0 5.0 0.00 0.00 0.00 62 1021.3
20190418172316 66 124 2.0 5.0 0.00 0.00 0.00 64 1021.3
20190418171817 66 116 2.0 4.0 0.00 0.00 0.00 63 1021.3
20190418171619 65 111 1.0 5.0 0.00 0.00 0.00 61 1021.5
20190418171316 66 123 1.0 5.0 0.00 0.00 0.00 65 1021.2
20190418170815 66 134 2.0 5.0 0.00 0.00 0.00 63 1021.1
20190418170314 66 130 3.0 6.0 0.00 0.00 0.00 61 1021.2
20190418170140 65 195 1.0 6.0 0.00 0.00 0.00 61 1021.5
20190418165814 67 142 2.0 6.0 0.00 0.00 0.00 63 1021.1
20190418165317 67 118 3.0 10.0 0.00 0.00 0.00 64 1021.0
20190418164817 67 131 3.0 10.0 0.00 0.00 0.00 62 1021.0
20190418164608 65 235 3.0 7.0 0.00 0.00 0.00 59 1021.3
20190418164317 67 130 4.0 7.0 0.00 0.00 0.00 61 1020.9
20190418163817 67 106 4.0 7.0 0.00 0.00 0.00 61 1020.9
20190418163314 67 118 4.0 7.0 0.00 0.00 0.00 61 1020.8
20190418163119 65 137 4.0 8.0 0.00 0.00 0.00 58 1021.2
20190418162816 67 134 3.0 9.0 0.00 0.00 0.00 62 1020.8
20190418162316 67 113 4.0 9.0 0.00 0.00 0.00 60 1020.7
20190418161815 68 100 5.0 11.0 0.00 0.00 0.00 61 1020.7
20190418161640 65 118 4.0 9.0 0.00 0.00 0.00 59 1021.1
20190418161315 68 128 4.0 11.0 0.00 0.00 0.00 61 1020.7
20190418160815 68 110 5.0 10.0 0.00 0.00 0.00 62 1020.6
20190418160314 68 111 5.0 10.0 0.00 0.00 0.00 60 1020.6
20190418160054 65 85 4.0 9.0 0.00 0.00 0.00 59 1021.0
20190418155815 68 114 4.0 10.0 0.00 0.00 0.00 61 1020.5
20190418155317 68 135 5.0 11.0 0.00 0.00 0.00 62 1020.6
20190418154817 69 103 5.0 11.0 0.00 0.00 0.00 61 1020.5
20190418154611 65 120 4.0 9.0 0.00 0.00 0.00 62 1020.9
20190418154315 69 114 4.0 10.0 0.00 0.00 0.00 61 1020.5
20190418153816 69 110 5.0 10.0 0.00 0.00 0.00 61 1020.4
20190418153315 69 104 5.0 10.0 0.00 0.00 0.00 62 1020.5
20190418153054 65 78 5.0 10.0 0.00 0.00 0.00 62 1020.8
20190418152814 69 102 4.0 10.0 0.00 0.00 0.00 61 1020.4
20190418152314 69 149 4.0 12.0 0.00 0.00 0.00 61 1020.4
20190418151815 69 96 5.0 13.0 0.00 0.00 0.00 61 1020.4
20190418151625 65 139 4.0 12.0 0.00 0.00 0.00 62 1020.7
20190418151313 69 102 5.0 13.0 0.00 0.00 0.00 60 1020.4
20190418150813 69 80 5.0 13.0 0.00 0.00 0.00 61 1020.4
20190418150313 69 114 5.0 13.0 0.00 0.00 0.00 60 1020.3
20190418150100 65 130 4.0 11.0 0.00 0.00 0.00 61 1020.7
20190418145813 70 62 6.0 12.0 0.00 0.00 0.00 59 1020.2
20190418145314 70 113 6.0 12.0 0.00 0.00 0.00 59 1020.2
20190418144812 70 120 5.0 10.0 0.00 0.00 0.00 58 1020.4
20190418144623 65 106 5.0 11.0 0.00 0.00 0.00 60 1020.8
20190418144312 70 125 4.0 11.0 0.00 0.00 0.00 59 1020.3
20190418143812 71 138 5.0 12.0 0.00 0.00 0.00 58 1020.4
20190418143312 71 92 6.0 13.0 0.00 0.00 0.00 59 1020.3
20190418143041 65 141 6.0 13.0 0.00 0.00 0.00 61 1020.8
20190418142813 71 109 6.0 13.0 0.00 0.00 0.00 59 1020.4
20190418142312 71 111 6.0 11.0 0.00 0.00 0.00 58 1020.3
20190418141813 71 103 5.0 13.0 0.00 0.00 0.00 60 1020.3
20190418141558 66 146 5.0 13.0 0.00 0.00 0.00 62 1020.8
20190418141313 71 138 5.0 13.0 0.00 0.00 0.00 61 1020.4
20190418140813 71 107 4.0 12.0 0.00 0.00 0.00 59 1020.3
20190418140312 71 116 6.0 11.0 0.00 0.00 0.00 59 1020.5
20190418140055 65 147 6.0 11.0 0.00 0.00 0.00 62 1020.8
20190418135813 71 123 7.0 12.0 0.00 0.00 0.00 59 1020.5
20190418135313 71 102 5.0 12.0 0.00 0.00 0.00 61 1020.4
20190418134813 71 100 6.0 17.0 0.00 0.00 0.00 57 1020.4
20190418134608 65 142 6.0 17.0 0.00 0.00 0.00 61 1020.9
20190418134314 71 68 8.0 17.0 0.00 0.00 0.00 58 1020.4
20190418133814 71 107 8.0 13.0 0.00 0.00 0.00 59 1020.5
20190418133314 71 103 5.0 14.0 0.00 0.00 0.00 62 1020.5
20190418133032 66 118 8.0 13.0 0.00 0.00 0.00 64 1020.8
20190418132813 71 142 6.0 10.0 0.00 0.00 0.00 60 1020.5
20190418132306 71 99 6.0 13.0 0.00 0.00 0.00 61 1020.4
20190418131808 71 127 6.0 13.0 0.00 0.00 0.00 61 1020.4
20190418131546 65 107 6.0 13.0 0.00 0.00 0.00 63 1020.8
20190418131305 71 86 4.0 11.0 0.00 0.00 0.00 64 1020.5
20190418130803 70 83 4.0 16.0 0.00 0.00 0.00 63 1020.4
20190418130303 70 87 6.0 13.0 0.00 0.00 0.00 62 1020.4
20190418130114 65 96 6.0 12.0 0.00 0.00 0.00 65 1020.8
20190418125803 70 116 6.0 12.0 0.00 0.00 0.00 63 1020.4
20190418125301 70 86 6.0 11.0 0.00 0.00 0.00 63 1020.3
20190418124803 70 103 4.0 10.0 0.00 0.00 0.00 65 1020.4
20190418124528 65 62 2.0 11.0 0.00 0.00 0.00 67 1020.8
20190418124302 69 114 4.0 10.0 0.00 0.00 0.00 63 1020.3
20190418123802 69 133 5.0 10.0 0.00 0.00 0.00 67 1020.2
20190418123304 69 113 4.0 7.0 0.00 0.00 0.00 68 1020.2
20190418123037 64 136 5.0 10.0 0.00 0.00 0.00 66 1020.6
20190418122802 68 104 4.0 9.0 0.00 0.00 0.00 66 1020.2
20190418122304 68 133 4.0 9.0 0.00 0.00 0.00 66 1020.2
20190418121803 68 134 4.0 9.0 0.00 0.00 0.00 64 1020.2
20190418121532 64 213 2.0 12.0 0.00 0.00 0.00 67 1020.7
20190418121301 69 114 5.0 11.0 0.00 0.00 0.00 63 1020.2
20190418120803 69 158 5.0 10.0 0.00 0.00 0.00 63 1020.2
20190418120302 70 107 6.0 12.0 0.00 0.00 0.00 62 1020.2
20190418120048 64 158 4.0 11.0 0.00 0.00 0.00 67 1020.6
20190418115805 70 144 6.0 12.0 0.00 0.00 0.00 61 1020.2
20190418115304 70 62 6.0 12.0 0.00 0.00 0.00 62 1020.2
20190418114803 70 110 4.0 12.0 0.00 0.00 0.00 64 1020.2
20190418114515 64 144 5.0 11.0 0.00 0.00 0.00 68 1020.7
20190418114303 70 93 6.0 10.0 0.00 0.00 0.00 65 1020.2
20190418113804 70 89 5.0 15.0 0.00 0.00 0.00 64 1020.3
20190418113303 69 104 7.0 15.0 0.00 0.00 0.00 66 1020.3
20190418113043 63 83 8.0 15.0 0.00 0.00 0.00 68 1020.8
20190418112804 69 99 8.0 13.0 0.00 0.00 0.00 64 1020.4
20190418112305 69 83 6.0 15.0 0.00 0.00 0.00 65 1020.4
20190418111803 69 72 9.0 15.0 0.00 0.00 0.00 64 1020.4
20190418111511 63 77 7.0 16.0 0.00 0.00 0.00 68 1020.7
20190418111304 68 104 6.0 14.0 0.00 0.00 0.00 67 1020.3
20190418110806 68 78 8.0 15.0 0.00 0.00 0.00 64 1020.3
20190418110305 68 63 10.0 15.0 0.00 0.00 0.00 62 1020.4
20190418110035 62 113 7.0 20.0 0.00 0.00 0.00 68 1020.7
20190418105805 68 97 7.0 22.0 0.00 0.00 0.00 66 1020.3
20190418105305 68 110 11.0 18.0 0.00 0.00 0.00 61 1020.4
20190418104805 68 104 11.0 17.0 0.00 0.00 0.00 61 1020.3
20190418104510 63 109 8.0 16.0 0.00 0.00 0.00 66 1020.8
20190418104302 68 87 6.0 17.0 0.00 0.00 0.00 65 1020.3
20190418103805 68 109 7.0 17.0 0.00 0.00 0.00 63 1020.2
20190418103302 68 92 4.0 16.0 0.00 0.00 0.00 66 1020.3
20190418103008 62 129 7.0 16.0 0.00 0.00 0.00 68 1020.8
20190418102803 67 66 9.0 16.0 0.00 0.00 0.00 63 1020.3
20190418102305 67 103 8.0 14.0 0.00 0.00 0.00 62 1020.2
20190418101801 67 114 8.0 14.0 0.00 0.00 0.00 64 1020.2
20190418101514 62 121 8.0 14.0 0.00 0.00 0.00 65 1020.8
20190418101302 67 66 6.0 13.0 0.00 0.00 0.00 63 1020.2
20190418100803 66 61 7.0 14.0 0.00 0.00 0.00 65 1020.2
20190418100304 66 107 7.0 14.0 0.00 0.00 0.00 62 1020.2
20190418100251 61 81 8.0 14.0 0.00 0.00 0.00 66 1020.8
20190418095804 66 66 7.0 15.0 0.00 0.00 0.00 65 1020.1
20190418095305 65 78 7.0 15.0 0.00 0.00 0.00 67 1020.2
20190418094802 64 97 6.0 19.0 0.00 0.00 0.00 68 1020.2
20190418094631 60 112 8.0 19.0 0.00 0.00 0.00 68 1020.7
20190418094303 63 49 11.0 19.0 0.00 0.00 0.00 66 1020.2
20190418093802 62 69 10.0 17.0 0.00 0.00 0.00 68 1020.2
20190418093303 62 72 10.0 17.0 0.00 0.00 0.00 68 1020.2
20190418093142 59 96 9.0 18.0 0.00 0.00 0.00 70 1020.8
20190418092801 62 58 9.0 19.0 0.00 0.00 0.00 69 1020.2
20190418092301 62 80 13.0 18.0 0.00 0.00 0.00 68 1020.1
20190418091803 62 76 10.0 14.0 0.00 0.00 0.00 69 1020.1
20190418091635 59 62 7.0 14.0 0.00 0.00 0.00 71 1020.7
20190418091303 61 73 10.0 14.0 0.00 0.00 0.00 72 1020.2
20190418090802 60 102 6.0 13.0 0.00 0.00 0.00 74 1020.1
20190418090303 60 61 6.0 17.0 0.00 0.00 0.00 75 1020.2
20190418090116 58 109 6.0 17.0 0.00 0.00 0.00 74 1020.7
20190418085802 59 63 7.0 17.0 0.00 0.00 0.00 73 1020.1
20190418085303 59 48 6.0 12.0 0.00 0.00 0.00 77 1020.0
20190418084804 58 72 6.0 11.0 0.00 0.00 0.00 78 1020.0
20190418084657 57 65 7.0 12.0 0.00 0.00 0.00 77 1020.6
20190418084304 58 58 5.0 11.0 0.00 0.00 0.00 80 1020.1
20190418083804 57 76 5.0 11.0 0.00 0.00 0.00 80 1019.9
20190418083303 57 41 4.0 11.0 0.00 0.00 0.00 80 1019.9
20190418083122 55 94 5.0 8.0 0.00 0.00 0.00 80 1020.6
20190418082803 57 13 5.0 9.0 0.00 0.00 0.00 81 1019.9
20190418082304 56 24 4.0 9.0 0.00 0.00 0.00 81 1019.9
20190418081803 56 48 5.0 9.0 0.00 0.00 0.00 82 1019.8
20190418081610 55 44 3.0 7.0 0.00 0.00 0.00 82 1020.4
20190418081303 56 23 6.0 12.0 0.00 0.00 0.00 83 1019.8
20190418080802 55 25 5.0 15.0 0.00 0.00 0.00 83 1019.7
20190418080303 55 21 6.0 12.0 0.00 0.00 0.00 85 1019.6
20190418080056 54 56 4.0 9.0 0.00 0.00 0.00 82 1020.4
20190418075802 54 54 6.0 9.0 0.00 0.00 0.00 85 1019.6
20190418075305 54 1 6.0 10.0 0.00 0.00 0.00 86 1019.7
20190418074803 53 27 5.0 12.0 0.00 0.00 0.00 87 1019.6
20190418074555 53 54 6.0 11.0 0.00 0.00 0.00 84 1020.2
20190418074303 53 8 6.0 11.0 0.00 0.00 0.00 86 1019.5
20190418073804 53 6 6.0 9.0 0.00 0.00 0.00 88 1019.6
20190418073303 52 16 5.0 11.0 0.00 0.00 0.00 89 1019.6
20190418073113 52 54 4.0 9.0 0.00 0.00 0.00 86 1020.1
20190418072801 52 24 6.0 11.0 0.00 0.00 0.00 89 1019.6
20190418072304 52 25 5.0 11.0 0.00 0.00 0.00 90 1019.5
20190418071802 51 18 5.0 11.0 0.00 0.00 0.00 90 1019.5
20190418071609 51 46 5.0 8.0 0.00 0.00 0.00 86 1020.1
20190418071303 51 11 5.0 7.0 0.00 0.00 0.00 90 1019.5
20190418070802 51 37 6.0 12.0 0.00 0.00 0.00 90 1019.5
20190418070302 51 4 5.0 11.0 0.00 0.00 0.00 90 1019.5
20190418070126 51 42 7.0 12.0 0.00 0.00 0.00 86 1020.0
20190418065804 50 358 6.0 10.0 0.00 0.00 0.00 91 1019.4
20190418065305 50 11 7.0 9.0 0.00 0.00 0.00 91 1019.4
20190418064803 50 0 6.0 7.0 0.00 0.00 0.00 91 1019.3
20190418064640 50 35 4.0 8.0 0.00 0.00 0.00 86 1020.0
20190418064304 50 358 5.0 7.0 0.00 0.00 0.00 91 1019.3
20190418063803 50 3 4.0 6.0 0.00 0.00 0.00 91 1019.3
20190418063302 49 31 4.0 6.0 0.00 0.00 0.00 92 1019.2
20190418063055 50 60 3.0 6.0 0.00 0.00 0.00 86 1019.8
20190418062802 49 45 4.0 9.0 0.00 0.00 0.00 91 1019.3
20190418062302 49 13 4.0 9.0 0.00 0.00 0.00 92 1019.2
20190418061801 49 10 4.0 9.0 0.00 0.00 0.00 92 1019.1
20190418061554 50 69 5.0 7.0 0.00 0.00 0.00 86 1019.6
20190418061304 49 24 4.0 7.0 0.00 0.00 0.00 91 1019.0
20190418060804 49 10 5.0 9.0 0.00 0.00 0.00 91 1018.9
20190418060303 49 28 5.0 9.0 0.00 0.00 0.00 91 1018.9
20190418060101 50 33 4.0 8.0 0.00 0.00 0.00 86 1019.4
20190418055803 48 28 4.0 10.0 0.00 0.00 0.00 91 1018.8
20190418055302 48 23 4.0 10.0 0.00 0.00 0.00 91 1018.8
20190418054804 48 25 4.0 6.0 0.00 0.00 0.00 91 1018.8
20190418054600 49 67 4.0 8.0 0.00 0.00 0.00 86 1019.3
20190418054303 48 38 4.0 7.0 0.00 0.00 0.00 91 1018.8
20190418053803 48 51 5.0 7.0 0.00 0.00 0.00 91 1018.6
20190418053303 48 3 3.0 7.0 0.00 0.00 0.00 91 1018.7
20190418053027 49 32 1.0 6.0 0.00 0.00 0.00 87 1019.2
20190418052804 48 0 3.0 6.0 0.00 0.00 0.00 91 1018.6
20190418052304 48 0 4.0 7.0 0.00 0.00 0.00 90 1018.6
20190418051803 48 24 3.0 7.0 0.00 0.00 0.00 90 1018.5
20190418051613 49 24 4.0 6.0 0.00 0.00 0.00 87 1019.0
20190418051303 48 0 4.0 6.0 0.00 0.00 0.00 90 1018.4
20190418050803 48 34 5.0 10.0 0.00 0.00 0.00 90 1018.4
20190418050303 48 4 6.0 7.0 0.00 0.00 0.00 89 1018.3
20190418050024 49 25 3.0 8.0 0.00 0.00 0.00 86 1018.9
20190418045802 49 344 4.0 9.0 0.00 0.00 0.00 89 1018.4
20190418045303 49 0 4.0 7.0 0.00 0.00 0.00 88 1018.3
20190418044804 49 0 4.0 6.0 0.00 0.00 0.00 87 1018.3
20190418044522 49 30 3.0 6.0 0.00 0.00 0.00 86 1018.9
20190418044303 49 0 3.0 6.0 0.00 0.00 0.00 87 1018.4
20190418043803 50 0 4.0 7.0 0.00 0.00 0.00 87 1018.3
20190418043303 50 41 4.0 6.0 0.00 0.00 0.00 86 1018.4
20190418043025 51 33 1.0 11.0 0.00 0.00 0.00 83 1019.0
20190418042801 51 14 4.0 11.0 0.00 0.00 0.00 86 1018.4
20190418042303 51 41 5.0 11.0 0.00 0.00 0.00 86 1018.5
20190418041803 51 80 4.0 11.0 0.00 0.00 0.00 86 1018.4
20190418041535 52 96 5.0 10.0 0.00 0.00 0.00 83 1019.0
20190418041302 51 71 4.0 13.0 0.00 0.00 0.00 86 1018.4
20190418040802 51 82 6.0 13.0 0.00 0.00 0.00 87 1018.3
20190418040303 51 63 4.0 11.0 0.00 0.00 0.00 87 1018.3
20190418040006 52 121 4.0 12.0 0.00 0.00 0.00 83 1018.9
20190418035802 51 56 7.0 11.0 0.00 0.00 0.00 87 1018.3
20190418035303 50 59 5.0 9.0 0.00 0.00 0.00 87 1018.3
20190418034801 50 55 3.0 10.0 0.00 0.00 0.00 87 1018.3
20190418034513 52 99 4.0 10.0 0.00 0.00 0.00 83 1018.9
20190418034303 50 78 3.0 9.0 0.00 0.00 0.00 87 1018.4
20190418033803 51 62 5.0 12.0 0.00 0.00 0.00 86 1018.3
20190418033303 51 56 4.0 7.0 0.00 0.00 0.00 86 1018.4
20190418032803 51 106 3.0 7.0 0.00 0.00 0.00 86 1018.4
20190418032303 51 100 4.0 10.0 0.00 0.00 0.00 85 1018.4
20190418031804 51 97 4.0 10.0 0.00 0.00 0.00 85 1018.6
20190418031654 52 245 2.0 8.0 0.00 0.00 0.00 82 1019.2
20190418031302 51 102 3.0 16.0 0.00 0.00 0.00 85 1018.6
20190418030802 51 133 7.0 16.0 0.00 0.01 0.00 85 1018.6
20190418030301 51 56 4.0 9.0 0.00 0.01 0.00 85 1018.6
20190418030145 52 114 2.0 11.0 0.00 0.00 0.00 81 1019.2
20190418025803 51 63 5.0 11.0 0.00 0.01 0.00 85 1018.6
20190418025302 51 79 6.0 7.0 0.00 0.01 0.00 85 1018.5
20190418024803 51 104 3.0 9.0 0.00 0.01 0.00 84 1018.6
20190418024619 53 33 2.0 11.0 0.00 0.00 0.00 80 1019.1
20190418024303 51 92 6.0 12.0 0.00 0.01 0.00 85 1018.5
20190418023802 51 72 6.0 10.0 0.00 0.01 0.00 84 1018.6
20190418023303 51 94 5.0 11.0 0.00 0.01 0.00 84 1018.6
20190418023150 53 118 6.0 12.0 0.00 0.00 0.00 80 1019.1
20190418022804 51 93 5.0 12.0 0.00 0.01 0.00 84 1018.6
20190418022303 51 82 5.0 11.0 0.00 0.01 0.00 84 1018.7
20190418021803 51 47 6.0 15.0 0.00 0.01 0.00 84 1018.6
20190418021715 53 110 5.0 14.0 0.00 0.00 0.00 80 1019.2
20190418021301 52 58 7.0 15.0 0.00 0.01 0.00 84 1018.6
20190418020802 52 111 9.0 13.0 0.00 0.01 0.00 84 1018.7
20190418020302 52 69 8.0 12.0 0.00 0.01 0.00 83 1018.6
20190418020206 53 90 4.0 12.0 0.00 0.00 0.00 80 1019.2
20190418015803 52 58 8.0 13.0 0.00 0.01 0.00 84 1018.7
20190418015305 52 47 7.0 12.0 0.00 0.01 0.00 84 1018.6
20190418014804 52 79 4.0 13.0 0.00 0.01 0.00 83 1018.7
20190418014643 53 84 5.0 14.0 0.00 0.00 0.00 80 1019.2
20190418014303 52 75 7.0 12.0 0.00 0.01 0.00 83 1018.7
20190418013804 52 72 4.0 11.0 0.00 0.01 0.00 83 1018.8
20190418013304 52 82 5.0 11.0 0.00 0.01 0.00 83 1018.9
20190418013219 53 145 3.0 11.0 0.00 0.00 0.00 80 1019.4
20190418012803 52 118 6.0 10.0 0.00 0.01 0.00 83 1018.8
20190418012305 52 82 4.0 10.0 0.00 0.01 0.00 83 1018.8
20190418011804 52 106 6.0 15.0 0.00 0.01 0.00 83 1018.6
20190418011652 53 122 5.0 15.0 0.00 0.00 0.00 79 1019.3
20190418011304 52 71 8.0 15.0 0.00 0.01 0.00 83 1018.7
20190418010802 52 99 8.0 15.0 0.00 0.01 0.00 83 1018.7
20190418010303 52 65 6.0 15.0 0.00 0.01 0.00 83 1018.7
20190418010110 53 99 6.0 14.0 0.00 0.00 0.00 79 1019.4
20190418005803 52 63 4.0 14.0 0.00 0.01 0.00 83 1018.7
20190418005304 52 59 7.0 12.0 0.00 0.01 0.00 83 1018.7
20190418004805 52 56 6.0 14.0 0.00 0.01 0.00 83 1018.6
20190418004703 53 97 6.0 17.0 0.00 0.01 0.00 80 1019.2
20190418004304 52 85 6.0 16.0 0.00 0.01 0.00 83 1018.7
20190418003803 52 41 9.0 15.0 0.00 0.01 0.00 84 1018.6